ADDS METAR Data INFO
IDs: Format: Raw Decoded Include TAF

Data at: 0933 UTC 11 Dec 2017

KFAM 110856Z AUTO 00000KT 10SM CLR M03/M04 A3011 RMK AO2 SLP199 T10281044 57010 FZRANO
KFAM 110756Z AUTO 00000KT 10SM CLR 01/M04 A3012 RMK AO2 SLP202 T00111039 FZRANO
KFAM 110656Z AUTO 16003KT 10SM CLR 00/M04 A3012 RMK AO2 SLP204 T00001044 FZRANO
KFAM 110556Z AUTO 00000KT 10SM CLR 06/M04 A3014 RMK AO2 SLP207 T00561039 10094 20039 401331078 58003
KFAM 110456Z AUTO 30005KT 10SM CLR 07/M03 A3014 RMK AO2 SLP209 T00671033
KFAM 110356Z AUTO 31006KT 10SM CLR 06/M03 A3014 RMK AO2 SLP212 T00611033
KFAM 110256Z AUTO 29004KT 10SM CLR 07/M04 A3015 RMK AO2 SLP211 T00671039 51015
KFAM 110156Z AUTO 30006KT 10SM CLR 08/M04 A3014 RMK AO2 SLP212 T00781039
KFAM 110056Z AUTO 28004KT 10SM CLR 08/M04 A3012 RMK AO2 SLP206 T00831039
KFAM 102356Z AUTO 00000KT 10SM CLR 09/M04 A3010 RMK AO2 SLP198 T00941039 10133 20089 53026
KFAM 102256Z AUTO 29006KT 10SM CLR 11/M04 A3007 RMK AO2 SLP187 T01111039
KFAM 102156Z AUTO 27007G16KT 10SM CLR 13/M04 A3004 RMK AO2 SLP176 T01281039
KFAM 102056Z AUTO 25008KT 10SM CLR 13/M04 A3002 RMK AO2 SLP169 T01331039 55010
KFAM 101956Z AUTO 27008G15KT 10SM CLR 13/M04 A3001 RMK AO2 SLP166 T01331044
KFAM 101856Z AUTO 24010KT 10SM CLR 12/M04 A3000 RMK AO2 SLP164 T01171044
KFAM 101756Z AUTO 24012KT 10SM CLR 09/M04 A3005 RMK AO2 SLP181 T00891044 10089 21056 58021
KFAM 101656Z AUTO 25010G20KT 10SM CLR 07/M05 A3008 RMK AO2 SLP190 T00721050
KFAM 101556Z AUTO 20010G17KT 10SM CLR 03/M06 A3009 RMK AO2 SLP197 T00331061
KFAM 101456Z AUTO 19006KT 10SM CLR 01/M06 A3011 RMK AO2 SLP207 T00061061 58013 FZRANO
KFAM 101356Z AUTO 20007KT 10SM CLR M03/M07 A3013 RMK AO2 SLP210 T10281067 FZRANO
KFAM 101256Z AUTO 19007KT 10SM CLR M06/M08 A3016 RMK AO2 SLP224 T10561083 FZRANO
KFAM 101156Z AUTO 20008KT 10SM CLR M05/M08 A3015 RMK AO2 SLP218 T10501083 11039 21078 56016 FZRANO
KFAM 101056Z AUTO 21003KT 10SM CLR M06/M09 A3017 RMK AO2 SLP225 T10561089 FZRANO
KFAM 100956Z AUTO 16003KT 10SM CLR M07/M09 A3017 RMK AO2 SLP226 T10671089 FZRANO
KFAM 100856Z AUTO 00000KT 10SM CLR M07/M09 A3020 RMK AO2 SLP235 T10671089 55008 FZRANO
KFAM 100756Z AUTO 00000KT 10SM CLR M07/M08 A3020 RMK AO2 SLP234 T10721083 FZRANO
KFAM 100656Z AUTO 00000KT 10SM CLR M07/M09 A3021 RMK AO2 SLP238 T10671089 FZRANO
KFAM 100556Z AUTO 00000KT 10SM CLR M04/M08 A3022 RMK AO2 SLP245 T10441083 10000 21056 400391056 51005 FZRANO
KFAM 100456Z AUTO 31003KT 10SM CLR M04/M08 A3022 RMK AO2 SLP245 T10391083 FZRANO
KFAM 100356Z AUTO 00000KT 10SM CLR M04/M08 A3021 RMK AO2 SLP239 T10391078 FZRANO
KFAM 100256Z AUTO 00000KT 10SM CLR M03/M08 A3021 RMK AO2 SLP238 T10281078 51018 FZRANO
KFAM 100156Z AUTO 34005KT 10SM CLR M02/M07 A3020 RMK AO2 SLP234 T10221072 FZRANO
KFAM 100056Z AUTO 34007KT 10SM CLR M01/M07 A3018 RMK AO2 SLP231 T10111067 FZRANO
KFAM 092356Z AUTO 34008KT 10SM CLR 00/M07 A3015 RMK AO2 SLP220 T00001072 10039 20000 51033 FZRANO
KFAM 092256Z AUTO 33006KT 10SM CLR 01/M08 A3012 RMK AO2 SLP209 T00111078 FZRANO
KFAM 092156Z AUTO 33013G18KT 10SM FEW047 03/M07 A3009 RMK AO2 SLP196 T00281072